createdAt,value
2023-09-11T00:08:23.408Z,18.4
2023-09-11T00:18:23.437Z,18.4
2023-09-11T00:28:23.373Z,18.3
2023-09-11T00:38:23.367Z,18.3
2023-09-11T00:48:23.436Z,18.3
2023-09-11T00:58:23.379Z,18.2
2023-09-11T01:08:23.304Z,18.2
2023-09-11T01:28:23.292Z,18.1
2023-09-11T01:38:23.368Z,18.1
2023-09-11T01:48:23.325Z,18.1
2023-09-11T01:58:23.234Z,18.1
2023-09-11T02:08:23.355Z,18
2023-09-11T02:18:23.241Z,18
2023-09-11T02:28:23.176Z,18
2023-09-11T02:38:23.142Z,17.9
2023-09-11T02:48:23.194Z,17.9
2023-09-11T02:58:22.909Z,17.9
2023-09-11T03:08:23.085Z,17.9
2023-09-11T03:18:23.199Z,17.8
2023-09-11T03:28:23.055Z,17.8
2023-09-11T03:38:23.059Z,17.8
2023-09-11T03:48:23.076Z,17.8
2023-09-11T03:58:23.082Z,17.8
2023-09-11T04:08:23.051Z,17.7
2023-09-11T04:18:23.153Z,17.7
2023-09-11T04:28:22.987Z,17.7
2023-09-11T04:38:23.001Z,17.7
2023-09-11T04:48:22.869Z,17.6
2023-09-11T04:58:22.874Z,17.6
2023-09-11T05:08:22.700Z,17.6
2023-09-11T05:18:22.906Z,17.6
2023-09-11T05:28:22.623Z,17.5
2023-09-11T05:38:22.894Z,17.5
2023-09-11T05:48:24.211Z,17.5
2023-09-11T05:58:22.790Z,17.5
2023-09-11T06:08:22.806Z,17.4
2023-09-11T06:18:22.829Z,17.4
2023-09-11T06:28:22.544Z,17.4
2023-09-11T06:38:22.750Z,17.4
2023-09-11T06:48:24.029Z,17.4
2023-09-11T06:58:22.709Z,17.4
2023-09-11T07:08:22.681Z,17.4
2023-09-11T07:18:22.773Z,17.4
2023-09-11T07:28:22.637Z,17.4
2023-09-11T07:38:22.642Z,17.4
2023-09-11T07:48:22.970Z,17.4
2023-09-11T07:58:22.397Z,17.4
2023-09-11T08:08:22.382Z,17.5
2023-09-11T08:18:22.650Z,17.5
2023-09-11T08:28:22.541Z,17.5
2023-09-11T08:38:22.555Z,17.6
2023-09-11T08:48:22.604Z,17.6
2023-09-11T08:58:22.422Z,17.6
2023-09-11T09:08:22.519Z,17.6
2023-09-11T09:18:22.797Z,17.7
2023-09-11T09:28:22.436Z,17.7
2023-09-11T09:38:22.215Z,17.7
2023-09-11T09:48:22.578Z,17.7
2023-09-11T09:58:22.313Z,17.8
2023-09-11T10:08:22.166Z,17.8
2023-09-11T10:18:22.415Z,17.8
2023-09-11T10:28:22.391Z,17.9
2023-09-11T10:38:22.336Z,18
2023-09-11T10:48:22.390Z,18
2023-09-11T10:58:22.250Z,18.1
2023-09-11T11:08:22.267Z,18.2
2023-09-11T11:18:22.342Z,18.2
2023-09-11T11:28:22.255Z,18.3
2023-09-11T11:38:22.218Z,18.4
2023-09-11T12:08:22.153Z,18.6
2023-09-11T12:18:22.224Z,18.7
2023-09-11T12:38:21.894Z,18.8
2023-09-11T12:48:22.020Z,18.8
2023-09-11T13:08:22.036Z,19
2023-09-11T13:18:22.129Z,19
2023-09-11T13:28:21.995Z,19.1
2023-09-11T13:58:21.975Z,19.2
2023-09-11T14:08:21.751Z,19.3
2023-09-11T14:18:22.681Z,19.3
2023-09-11T14:28:21.892Z,19.3
2023-09-11T14:48:21.975Z,19.4
2023-09-11T14:58:21.897Z,19.5
2023-09-11T15:18:21.896Z,19.5
2023-09-11T15:28:21.827Z,19.5
2023-09-11T16:08:21.563Z,19.6
2023-09-11T16:28:21.479Z,19.6
2023-09-11T16:38:21.653Z,19.6
2023-09-11T16:48:21.486Z,19.6
2023-09-11T16:58:21.828Z,19.6
2023-09-11T17:18:21.711Z,19.6
2023-09-11T17:28:21.571Z,19.6
2023-09-11T17:38:21.492Z,19.6
2023-09-11T17:48:21.680Z,19.6
2023-09-11T17:58:21.563Z,19.5
2023-09-11T18:08:21.488Z,19.5
2023-09-11T18:18:21.571Z,19.5
2023-09-11T18:28:21.445Z,19.5
2023-09-11T18:38:21.446Z,19.5
2023-09-11T18:48:21.554Z,19.5
2023-09-11T18:58:21.426Z,19.4
2023-09-11T19:08:21.385Z,19.4
2023-09-11T19:18:21.497Z,19.4
2023-09-11T19:28:21.141Z,19.3
2023-09-11T19:38:21.367Z,19.3
2023-09-11T19:48:21.393Z,19.3
2023-09-11T19:58:21.304Z,19.3
2023-09-11T20:08:21.305Z,19.2
2023-09-11T20:38:21.244Z,19.1
2023-09-11T20:48:21.326Z,19.1
2023-09-11T20:58:21.191Z,19.1
2023-09-11T21:08:21.202Z,19
2023-09-11T21:18:20.652Z,19
2023-09-11T21:28:20.933Z,19
2023-09-11T21:38:21.151Z,19
2023-09-11T21:58:21.082Z,18.9
2023-09-11T22:08:21.080Z,18.9
2023-09-11T22:18:21.162Z,18.9
2023-09-11T22:28:21.045Z,18.9
2023-09-11T22:38:20.808Z,18.9
2023-09-11T22:48:21.126Z,18.9
2023-09-11T22:58:20.969Z,18.8
2023-09-11T23:08:20.976Z,18.8
2023-09-11T23:18:21.015Z,18.8
2023-09-11T23:28:20.977Z,18.8
2023-09-11T23:48:20.912Z,18.8
2023-09-11T23:58:20.822Z,18.7
